createdAt,value
2018-09-09T00:01:43.720Z,56070.68
2018-09-09T00:04:12.880Z,56027.50
2018-09-09T00:06:42.053Z,56000.76
2018-09-09T00:09:15.984Z,56042.92
2018-09-09T00:11:45.229Z,55995.62
2018-09-09T00:14:14.417Z,56051.14
2018-09-09T00:16:43.626Z,56040.86
2018-09-09T00:19:12.772Z,56030.58
2018-09-09T00:21:42.097Z,56043.95
2018-09-09T00:24:11.292Z,56018.24
2018-09-09T00:26:40.488Z,56042.92
2018-09-09T00:29:09.719Z,55993.57
2018-09-09T00:31:38.906Z,56064.51
2018-09-09T00:34:08.104Z,56038.81
2018-09-09T00:36:37.229Z,56042.92
2018-09-09T00:39:08.007Z,56020.30
2018-09-09T00:41:37.143Z,56049.09
2018-09-09T00:44:06.266Z,56042.92
2018-09-09T00:46:35.418Z,56028.52
2018-09-09T00:49:09.904Z,56061.43
2018-09-09T00:51:44.274Z,56040.86
2018-09-09T00:54:13.342Z,56022.36
2018-09-09T00:56:42.478Z,56065.54
2018-09-09T00:59:11.603Z,56033.67
2018-09-09T01:01:40.719Z,56022.36
2018-09-09T01:04:09.820Z,56032.64
2018-09-09T01:06:39.007Z,55981.23
2018-09-09T01:09:09.818Z,56020.30
2018-09-09T01:11:38.925Z,56046.00
2018-09-09T01:14:08.100Z,56043.95
2018-09-09T01:16:37.194Z,56048.06
2018-09-09T01:19:06.352Z,56061.43
2018-09-09T01:21:35.492Z,56040.86
2018-09-09T01:24:04.616Z,56046.00
2018-09-09T01:26:33.737Z,56033.67
2018-09-09T01:29:02.869Z,56044.98
2018-09-09T01:31:32.012Z,56020.30
2018-09-09T01:34:01.174Z,56027.50
2018-09-09T01:36:30.324Z,56015.16
2018-09-09T01:38:59.531Z,56018.24
2018-09-09T01:41:28.641Z,56019.27
2018-09-09T01:43:57.758Z,56017.21
2018-09-09T01:46:26.850Z,56049.09
2018-09-09T01:48:55.922Z,56051.14
2018-09-09T01:51:25.115Z,56044.98
2018-09-09T01:53:54.311Z,56067.60
2018-09-09T01:56:23.484Z,56026.47
2018-09-09T01:58:52.622Z,56040.86
2018-09-09T02:01:21.779Z,56049.09
2018-09-09T02:03:50.898Z,56051.14
2018-09-09T02:06:20.130Z,56040.86
2018-09-09T02:08:49.261Z,56057.32
2018-09-09T02:11:18.319Z,56047.03
2018-09-09T02:13:47.470Z,56065.54
2018-09-09T02:16:16.553Z,56044.98
2018-09-09T02:18:45.637Z,56064.51
2018-09-09T02:21:14.747Z,56077.88
2018-09-09T02:23:43.834Z,56051.14
2018-09-09T02:26:12.975Z,56048.06
2018-09-09T02:28:42.079Z,56046.00
2018-09-09T02:31:11.275Z,56052.18
2018-09-09T02:33:40.407Z,56055.26
2018-09-09T02:36:09.543Z,56040.86
2018-09-09T02:38:38.673Z,56067.60
2018-09-09T02:41:07.832Z,56040.86
2018-09-09T02:43:37.025Z,56056.29
2018-09-09T02:46:06.069Z,56022.36
2018-09-09T02:48:35.208Z,56046.00
2018-09-09T02:51:04.417Z,56053.20
2018-09-09T02:53:40.298Z,56068.62
2018-09-09T02:56:10.637Z,56047.03
2018-09-09T02:58:39.787Z,56065.54
2018-09-09T03:01:08.881Z,56010.02
2018-09-09T03:03:37.996Z,56026.47
2018-09-09T03:06:07.162Z,56046.00
2018-09-09T03:08:36.264Z,56061.43
2018-09-09T03:11:10.722Z,56060.40
2018-09-09T03:13:39.815Z,56055.26
2018-09-09T03:16:08.950Z,56069.65
2018-09-09T03:18:38.079Z,56083.02
2018-09-09T03:21:07.289Z,56065.54
2018-09-09T03:23:36.628Z,56087.14
2018-09-09T03:26:05.838Z,56116.95
2018-09-09T03:28:35.121Z,56048.06
2018-09-09T03:31:04.359Z,56046.00
2018-09-09T03:33:33.489Z,56044.98
2018-09-09T03:36:02.644Z,56071.71
2018-09-09T03:38:31.855Z,56049.09
2018-09-09T03:41:01.082Z,56068.62
2018-09-09T03:43:30.356Z,56059.37
2018-09-09T03:45:59.521Z,56048.06
2018-09-09T03:48:28.645Z,56056.29
2018-09-09T03:50:57.840Z,56066.57
2018-09-09T03:53:27.039Z,56056.29
2018-09-09T03:55:56.237Z,56041.89
2018-09-09T03:58:25.364Z,56075.82
2018-09-09T04:00:54.479Z,56054.23
2018-09-09T04:03:23.606Z,56077.88
2018-09-09T04:05:52.760Z,56060.40
2018-09-09T04:08:21.918Z,56074.80
2018-09-09T04:10:51.118Z,56073.77
2018-09-09T04:13:20.382Z,56064.51
2018-09-09T04:15:49.576Z,56049.09
2018-09-09T04:18:18.732Z,56030.58
2018-09-09T04:20:47.886Z,56085.08
2018-09-09T04:23:17.081Z,56063.48
2018-09-09T04:25:46.242Z,56051.14
2018-09-09T04:28:15.417Z,56058.34
2018-09-09T04:30:44.593Z,56083.02
2018-09-09T04:33:13.844Z,56094.33
2018-09-09T04:35:43.059Z,56070.68
2018-09-09T04:38:12.217Z,56073.77
2018-09-09T04:40:41.402Z,56047.03
2018-09-09T04:43:10.796Z,56044.98
2018-09-09T04:45:40.019Z,56044.98
2018-09-09T04:48:09.160Z,56061.43
2018-09-09T04:50:38.528Z,56048.06
2018-09-09T04:53:07.785Z,56035.72
2018-09-09T04:55:36.940Z,56061.43
2018-09-09T04:58:06.105Z,56075.82
2018-09-09T05:00:35.319Z,56097.42
2018-09-09T05:03:04.457Z,56043.95
2018-09-09T05:05:33.651Z,56043.95
2018-09-09T05:08:02.859Z,56062.46
2018-09-09T05:10:31.984Z,56051.14
2018-09-09T05:13:01.078Z,56037.78
2018-09-09T05:15:30.222Z,56073.77
2018-09-09T05:17:59.400Z,56068.62
2018-09-09T05:20:28.565Z,56053.20
2018-09-09T05:22:57.721Z,56038.81
2018-09-09T05:25:26.895Z,56046.00
2018-09-09T05:27:56.028Z,56067.60
2018-09-09T05:30:25.210Z,56049.09
2018-09-09T05:32:54.409Z,56040.86
2018-09-09T05:35:23.508Z,56059.37
2018-09-09T05:37:52.622Z,56047.03
2018-09-09T05:40:21.783Z,56065.54
2018-09-09T05:42:50.935Z,56033.67
2018-09-09T05:45:20.088Z,56061.43
2018-09-09T05:47:49.214Z,56040.86
2018-09-09T05:50:18.415Z,56049.09
2018-09-09T05:52:47.480Z,56022.36
2018-09-09T05:55:16.615Z,56021.33
2018-09-09T05:57:45.774Z,56052.18
2018-09-09T06:00:14.927Z,56002.82
2018-09-09T06:02:44.088Z,56036.75
2018-09-09T06:05:13.251Z,56026.47
2018-09-09T06:07:42.355Z,56026.47
2018-09-09T06:10:11.516Z,56028.52
2018-09-09T06:12:40.672Z,56012.07
2018-09-09T06:15:09.846Z,56018.24
2018-09-09T06:17:39.017Z,56091.25
2018-09-09T06:20:08.147Z,56017.21
2018-09-09T06:22:37.273Z,56035.72
2018-09-09T06:25:06.442Z,56056.29
2018-09-09T06:27:35.526Z,56039.84
2018-09-09T06:30:04.847Z,56029.55
2018-09-09T06:32:34.038Z,56017.21
2018-09-09T06:35:03.188Z,56018.24
2018-09-09T06:37:32.428Z,55985.34
2018-09-09T06:40:01.626Z,56017.21
2018-09-09T06:42:30.776Z,56044.98
2018-09-09T06:44:59.942Z,55997.68
2018-09-09T06:47:29.082Z,56002.82
2018-09-09T06:49:58.397Z,55998.71
2018-09-09T06:52:27.631Z,55991.51
2018-09-09T06:54:56.826Z,55976.09
2018-09-09T06:57:25.955Z,55975.06
2018-09-09T06:59:55.092Z,55965.80
2018-09-09T07:02:24.285Z,55959.63
2018-09-09T07:04:53.443Z,55980.20
2018-09-09T07:07:22.698Z,55960.66
2018-09-09T07:09:51.856Z,55968.89
2018-09-09T07:12:21.000Z,55955.52
2018-09-09T07:14:50.111Z,55938.04
2018-09-09T07:17:19.278Z,55966.83
2018-09-09T07:19:48.401Z,55943.18
2018-09-09T07:22:17.542Z,55944.21
2018-09-09T07:24:46.740Z,55960.66
2018-09-09T07:27:16.003Z,55980.20
2018-09-09T07:29:45.407Z,55956.55
2018-09-09T07:32:14.583Z,55967.86
2018-09-09T07:34:44.506Z,55958.61
2018-09-09T07:37:13.654Z,55951.41
2018-09-09T07:39:42.769Z,55954.49
2018-09-09T07:42:11.983Z,55954.49
2018-09-09T07:44:41.182Z,55964.78
2018-09-09T07:47:10.332Z,55953.46
2018-09-09T07:49:39.647Z,55942.16
2018-09-09T07:52:09.299Z,55970.95
2018-09-09T07:54:38.462Z,55942.16
2018-09-09T07:57:07.637Z,55934.96
2018-09-09T07:59:36.768Z,55964.78
2018-09-09T08:02:05.960Z,55954.49
2018-09-09T08:04:36.101Z,55952.44
2018-09-09T08:07:05.178Z,55958.61
2018-09-09T08:09:34.285Z,55924.68
2018-09-09T08:12:03.490Z,55971.97
2018-09-09T08:14:32.601Z,55958.61
2018-09-09T08:17:01.741Z,55943.18
2018-09-09T08:19:30.882Z,55933.93
2018-09-09T08:22:00.041Z,55992.54
2018-09-09T08:24:29.320Z,55962.72
2018-09-09T08:26:58.526Z,55959.63
2018-09-09T08:29:27.668Z,55935.98
2018-09-09T08:31:56.823Z,55966.83
2018-09-09T08:34:25.994Z,55958.61
2018-09-09T08:36:55.165Z,55963.75
2018-09-09T08:39:24.314Z,55959.63
2018-09-09T08:41:53.542Z,55958.61
2018-09-09T08:44:22.705Z,55928.79
2018-09-09T08:46:51.863Z,55908.23
2018-09-09T08:49:21.007Z,55923.65
2018-09-09T08:51:50.363Z,55919.54
2018-09-09T08:54:19.547Z,55905.14
2018-09-09T08:56:48.660Z,55930.84
2018-09-09T08:59:17.845Z,55905.14
2018-09-09T09:01:47.009Z,55920.56
2018-09-09T09:04:16.152Z,55884.57
2018-09-09T09:06:45.301Z,55908.23
2018-09-09T09:09:14.445Z,55938.04
2018-09-09T09:11:43.591Z,55913.36
2018-09-09T09:14:12.723Z,55926.73
2018-09-09T09:16:45.907Z,55890.75
2018-09-09T09:19:15.034Z,55855.79
2018-09-09T09:21:44.204Z,55818.77
2018-09-09T09:24:13.449Z,55799.24
2018-09-09T09:26:42.605Z,55820.83
2018-09-09T09:29:11.723Z,55762.22
2018-09-09T09:31:40.903Z,55771.48
2018-09-09T09:34:10.016Z,55836.25
2018-09-09T09:36:39.357Z,55853.73
2018-09-09T09:39:08.829Z,55841.39
2018-09-09T09:41:38.301Z,55843.45
2018-09-09T09:44:07.920Z,55855.79
2018-09-09T09:46:38.134Z,55822.88
2018-09-09T09:49:07.276Z,55819.80
2018-09-09T09:51:36.415Z,55811.57
2018-09-09T09:54:05.613Z,55809.52
2018-09-09T09:56:34.860Z,55839.34
2018-09-09T09:59:04.100Z,55844.48
2018-09-09T10:01:33.275Z,55816.71
2018-09-09T10:04:02.435Z,55820.83
2018-09-09T10:06:31.594Z,55855.79
2018-09-09T10:09:00.777Z,55840.36
2018-09-09T10:11:30.011Z,55849.62
2018-09-09T10:13:59.131Z,55882.52
2018-09-09T10:16:28.277Z,55881.49
2018-09-09T10:18:57.426Z,55850.64
2018-09-09T10:21:26.508Z,55818.77
2018-09-09T10:23:56.133Z,55818.77
2018-09-09T10:26:25.252Z,55853.73
2018-09-09T10:28:54.389Z,55904.11
2018-09-09T10:31:23.521Z,55881.49
2018-09-09T10:33:52.734Z,55909.25
2018-09-09T10:36:21.904Z,55841.39
2018-09-09T10:38:51.090Z,55851.68
2018-09-09T10:41:20.296Z,55853.73
2018-09-09T10:43:50.201Z,55872.24
2018-09-09T10:46:19.528Z,55870.18
2018-09-09T10:48:49.114Z,55916.45
2018-09-09T10:51:18.875Z,55859.90
2018-09-09T10:53:48.092Z,55885.61
2018-09-09T10:56:17.278Z,55882.52
2018-09-09T10:58:46.627Z,55883.55
2018-09-09T11:01:15.792Z,55884.57
2018-09-09T11:03:45.021Z,55892.80
2018-09-09T11:06:14.300Z,55853.73
2018-09-09T11:08:43.466Z,55877.38
2018-09-09T11:11:12.760Z,55868.12
2018-09-09T11:13:41.913Z,55877.38
2018-09-09T11:16:11.106Z,55904.11
2018-09-09T11:18:40.252Z,55921.59
2018-09-09T11:21:09.439Z,55924.68
2018-09-09T11:23:38.593Z,55945.24
2018-09-09T11:26:07.744Z,55960.66
2018-09-09T11:28:36.975Z,55960.66
2018-09-09T11:31:06.271Z,55920.56
2018-09-09T11:33:35.435Z,55933.93
2018-09-09T11:36:04.586Z,55949.35
2018-09-09T11:38:33.748Z,55927.76
2018-09-09T11:41:02.980Z,55976.09
2018-09-09T11:43:32.212Z,55932.90
2018-09-09T11:46:01.420Z,55913.36
2018-09-09T11:48:30.712Z,55926.73
2018-09-09T11:50:59.928Z,55935.98
2018-09-09T11:53:29.179Z,55921.59
2018-09-09T11:55:58.453Z,55952.44
2018-09-09T11:58:27.730Z,55925.70
2018-09-09T12:00:56.887Z,55897.94
2018-09-09T12:03:26.071Z,55919.54
2018-09-09T12:05:55.306Z,55908.23
2018-09-09T12:08:24.539Z,55890.75
2018-09-09T12:10:53.703Z,55922.62
2018-09-09T12:13:22.864Z,55915.42
2018-09-09T12:15:52.073Z,55918.50
2018-09-09T12:18:21.255Z,55919.54
2018-09-09T12:20:50.439Z,55901.03
2018-09-09T12:23:19.799Z,55894.86
2018-09-09T12:25:48.946Z,55909.25
2018-09-09T12:28:18.167Z,55917.48
2018-09-09T12:30:47.496Z,55900.00
2018-09-09T12:33:16.664Z,55886.63
2018-09-09T12:35:45.816Z,55905.14
2018-09-09T12:38:15.026Z,55913.36
2018-09-09T12:40:50.137Z,55889.72
2018-09-09T12:43:24.852Z,55894.86
2018-09-09T12:45:59.292Z,55926.73
2018-09-09T12:48:40.527Z,55901.03
2018-09-09T12:51:09.732Z,55873.27
2018-09-09T12:53:38.862Z,55888.69
2018-09-09T12:56:08.014Z,55878.41
2018-09-09T12:58:37.172Z,55892.80
2018-09-09T13:01:06.389Z,55903.08
2018-09-09T13:03:35.581Z,55862.98
2018-09-09T13:06:04.724Z,55908.23
2018-09-09T13:08:33.904Z,55872.24
2018-09-09T13:11:03.047Z,55855.79
2018-09-09T13:13:32.219Z,55835.22
2018-09-09T13:16:01.395Z,55884.57
2018-09-09T13:18:30.516Z,55856.81
2018-09-09T13:20:59.718Z,55849.62
2018-09-09T13:23:28.943Z,55888.69
2018-09-09T13:25:58.146Z,55856.81
2018-09-09T13:28:27.366Z,55861.95
2018-09-09T13:30:56.576Z,55882.52
2018-09-09T13:33:25.794Z,55842.42
2018-09-09T13:35:55.293Z,55841.39
2018-09-09T13:38:24.410Z,55854.76
2018-09-09T13:40:53.574Z,55864.01
2018-09-09T13:43:22.771Z,55867.10
2018-09-09T13:45:51.881Z,55862.98
2018-09-09T13:48:21.014Z,55855.79
2018-09-09T13:50:50.221Z,55876.35
2018-09-09T13:53:19.402Z,55883.55
2018-09-09T13:55:48.572Z,55895.89
2018-09-09T13:58:17.747Z,55882.52
2018-09-09T14:00:46.944Z,55893.83
2018-09-09T14:03:16.280Z,55904.11
2018-09-09T14:05:45.454Z,55886.63
2018-09-09T14:08:14.617Z,55858.87
2018-09-09T14:10:43.832Z,55886.63
2018-09-09T14:13:13.310Z,55907.20
2018-09-09T14:15:42.435Z,55896.91
2018-09-09T14:18:11.584Z,55884.57
2018-09-09T14:20:40.809Z,55876.35
2018-09-09T14:23:10.077Z,55886.63
2018-09-09T14:25:40.062Z,55885.61
2018-09-09T14:28:09.257Z,55891.77
2018-09-09T14:30:38.439Z,55889.72
2018-09-09T14:33:07.692Z,55861.95
2018-09-09T14:35:36.853Z,55901.03
2018-09-09T14:38:06.121Z,55924.68
2018-09-09T14:40:35.352Z,55924.68
2018-09-09T14:43:04.614Z,55920.56
2018-09-09T14:45:33.906Z,55932.90
2018-09-09T14:48:03.139Z,55918.50
2018-09-09T14:50:32.243Z,55931.87
2018-09-09T14:53:01.421Z,55898.97
2018-09-09T14:55:34.609Z,55928.79
2018-09-09T14:58:03.844Z,55903.08
2018-09-09T15:00:32.998Z,55916.45
2018-09-09T15:03:02.134Z,55932.90
2018-09-09T15:05:31.370Z,55917.48
2018-09-09T15:08:00.575Z,55913.36
2018-09-09T15:10:29.771Z,55913.36
2018-09-09T15:12:59.048Z,55923.65
2018-09-09T15:15:28.272Z,55927.76
2018-09-09T15:17:57.393Z,55934.96
2018-09-09T15:20:26.583Z,55917.48
2018-09-09T15:22:55.748Z,55938.04
2018-09-09T15:25:24.903Z,55926.73
2018-09-09T15:27:54.188Z,55914.39
2018-09-09T15:30:23.354Z,55918.50
2018-09-09T15:32:52.526Z,55910.28
2018-09-09T15:35:21.698Z,55968.89
2018-09-09T15:37:50.945Z,55932.90
2018-09-09T15:40:20.166Z,55915.42
2018-09-09T15:42:49.392Z,55925.70
2018-09-09T15:45:18.582Z,55922.62
2018-09-09T15:47:47.670Z,55929.82
2018-09-09T15:50:16.838Z,55917.48
2018-09-09T15:52:45.995Z,55923.65
2018-09-09T15:55:15.240Z,55923.65
2018-09-09T15:57:44.446Z,55915.42
2018-09-09T16:00:13.682Z,55919.54
2018-09-09T16:02:42.905Z,55948.32
2018-09-09T16:05:12.150Z,55925.70
2018-09-09T16:07:41.330Z,55914.39
2018-09-09T16:10:10.505Z,55954.49
2018-09-09T16:12:39.616Z,55937.01
2018-09-09T16:15:08.936Z,55927.76
2018-09-09T16:17:38.064Z,55938.04
2018-09-09T16:20:08.112Z,55933.93
2018-09-09T16:22:37.267Z,55937.01
2018-09-09T16:25:06.402Z,55923.65
2018-09-09T16:27:35.539Z,55909.25
2018-09-09T16:30:05.571Z,55919.54
2018-09-09T16:32:34.736Z,55917.48
2018-09-09T16:35:03.849Z,55956.55
2018-09-09T16:37:32.937Z,55957.58
2018-09-09T16:40:02.106Z,55939.07
2018-09-09T16:42:31.614Z,55951.41
2018-09-09T16:45:00.789Z,55938.04
2018-09-09T16:47:30.205Z,55964.78
2018-09-09T16:49:59.670Z,55919.54
2018-09-09T16:52:28.916Z,55955.52
2018-09-09T16:54:58.071Z,55961.69
2018-09-09T16:57:27.241Z,55947.30
2018-09-09T16:59:56.388Z,55949.35
2018-09-09T17:02:25.530Z,55941.13
2018-09-09T17:04:54.666Z,55956.55
2018-09-09T17:07:23.855Z,55968.89
2018-09-09T17:09:52.967Z,55957.58
2018-09-09T17:12:22.116Z,55937.01
2018-09-09T17:14:51.387Z,55962.72
2018-09-09T17:17:20.525Z,55951.41
2018-09-09T17:19:49.697Z,55955.52
2018-09-09T17:22:18.895Z,55937.01
2018-09-09T17:24:48.132Z,55967.86
2018-09-09T17:27:17.279Z,55976.09
2018-09-09T17:29:46.403Z,55948.32
2018-09-09T17:32:15.602Z,55953.46
2018-09-09T17:34:44.785Z,55980.20
2018-09-09T17:37:14.085Z,55993.57
2018-09-09T17:39:43.303Z,55978.14
2018-09-09T17:42:12.456Z,55963.75
2018-09-09T17:44:41.610Z,55953.46
2018-09-09T17:47:10.787Z,55977.11
2018-09-09T17:49:39.923Z,55954.49
2018-09-09T17:52:09.129Z,55982.25
2018-09-09T17:54:38.295Z,55963.75
2018-09-09T17:57:07.472Z,55975.06
2018-09-09T17:59:36.703Z,55947.30
2018-09-09T18:02:05.915Z,55976.09
2018-09-09T18:04:35.096Z,55970.95
2018-09-09T18:07:04.349Z,55964.78
2018-09-09T18:09:33.546Z,55991.51
2018-09-09T18:12:02.868Z,55978.14
2018-09-09T18:14:32.074Z,55975.06
2018-09-09T18:17:01.325Z,55981.23
2018-09-09T18:19:30.462Z,55975.06
2018-09-09T18:21:59.660Z,55948.32
2018-09-09T18:24:28.858Z,55981.23
2018-09-09T18:26:58.049Z,55962.72
2018-09-09T18:29:27.507Z,56000.76
2018-09-09T18:31:56.743Z,56006.93
2018-09-09T18:34:25.948Z,55979.17
2018-09-09T18:36:55.160Z,55985.34
2018-09-09T18:39:24.370Z,55997.68
2018-09-09T18:41:53.537Z,55981.23
2018-09-09T18:44:22.690Z,55984.31
2018-09-09T18:46:51.772Z,55987.40
2018-09-09T18:49:20.942Z,55995.62
2018-09-09T18:51:50.269Z,55993.57
2018-09-09T18:54:19.439Z,56040.86
2018-09-09T18:56:48.689Z,55991.51
2018-09-09T18:59:18.102Z,55998.71
2018-09-09T19:01:47.217Z,56003.85
2018-09-09T19:04:16.531Z,55998.71
2018-09-09T19:06:45.644Z,56005.90
2018-09-09T19:09:14.811Z,55997.68
2018-09-09T19:11:44.111Z,56000.76
2018-09-09T19:14:13.429Z,56016.19
2018-09-09T19:16:42.569Z,56050.12
2018-09-09T19:19:11.672Z,56000.76
2018-09-09T19:21:40.872Z,56021.33
2018-09-09T19:24:10.119Z,56012.07
2018-09-09T19:26:39.324Z,55988.43
2018-09-09T19:29:08.574Z,55988.43
2018-09-09T19:31:37.700Z,56022.36
2018-09-09T19:34:07.001Z,56006.93
2018-09-09T19:36:36.239Z,56020.30
2018-09-09T19:39:09.509Z,56011.05
2018-09-09T19:41:38.694Z,56021.33
2018-09-09T19:44:08.496Z,56005.90
2018-09-09T19:46:38.365Z,56001.79
2018-09-09T19:49:07.717Z,56042.92
2018-09-09T19:51:37.072Z,56015.16
2018-09-09T19:54:06.206Z,56022.36
2018-09-09T19:56:35.440Z,56005.90
2018-09-09T19:59:04.688Z,56010.02
2018-09-09T20:01:33.840Z,56033.67
2018-09-09T20:04:03.146Z,56001.79
2018-09-09T20:06:32.334Z,56015.16
2018-09-09T20:09:02.597Z,56023.38
2018-09-09T20:11:31.748Z,56010.02
2018-09-09T20:14:00.901Z,56026.47
2018-09-09T20:16:30.062Z,56021.33
2018-09-09T20:18:59.344Z,56022.36
2018-09-09T20:21:28.495Z,56034.70
2018-09-09T20:23:57.660Z,56005.90
2018-09-09T20:26:26.868Z,56043.95
2018-09-09T20:28:56.132Z,56014.13
2018-09-09T20:31:25.298Z,56017.21
2018-09-09T20:33:54.527Z,56017.21
2018-09-09T20:36:23.695Z,56010.02
2018-09-09T20:38:53.018Z,56017.21
2018-09-09T20:41:22.217Z,56025.44
2018-09-09T20:43:51.416Z,56010.02
2018-09-09T20:46:20.654Z,56018.24
2018-09-09T20:48:49.857Z,56006.93
2018-09-09T20:51:19.025Z,56037.78
2018-09-09T20:53:48.252Z,56010.02
2018-09-09T20:56:17.369Z,56031.61
2018-09-09T20:58:46.549Z,56040.86
2018-09-09T21:01:15.715Z,56030.58
2018-09-09T21:03:44.890Z,56034.70
2018-09-09T21:06:14.027Z,56026.47
2018-09-09T21:08:43.253Z,56012.07
2018-09-09T21:11:12.415Z,56043.95
2018-09-09T21:13:41.584Z,56005.90
2018-09-09T21:16:10.741Z,56038.81
2018-09-09T21:18:39.905Z,56036.75
2018-09-09T21:21:09.077Z,56037.78
2018-09-09T21:23:38.267Z,56040.86
2018-09-09T21:26:07.827Z,56023.38
2018-09-09T21:28:37.030Z,56049.09
2018-09-09T21:31:06.275Z,56055.26
2018-09-09T21:33:35.432Z,56062.46
2018-09-09T21:36:04.655Z,56007.96
2018-09-09T21:38:33.824Z,56011.05
2018-09-09T21:41:03.107Z,56024.41
2018-09-09T21:43:32.270Z,56029.55
2018-09-09T21:46:01.449Z,56044.98
2018-09-09T21:48:30.669Z,56054.23
2018-09-09T21:50:59.856Z,56027.50
2018-09-09T21:53:29.025Z,56008.99
2018-09-09T21:55:58.268Z,55999.73
2018-09-09T21:58:27.491Z,56054.23
2018-09-09T22:01:02.037Z,56034.70
2018-09-09T22:03:31.176Z,56026.47
2018-09-09T22:06:00.405Z,56047.03
2018-09-09T22:08:29.577Z,56059.37
2018-09-09T22:10:58.761Z,56028.52
2018-09-09T22:13:27.882Z,56026.47
2018-09-09T22:15:57.030Z,56038.81
2018-09-09T22:18:26.192Z,56058.34
2018-09-09T22:20:55.374Z,56039.84
2018-09-09T22:23:24.502Z,56046.00
2018-09-09T22:25:53.625Z,56042.92
2018-09-09T22:28:22.793Z,56067.60
2018-09-09T22:30:51.946Z,56040.86
2018-09-09T22:33:21.132Z,56012.07
2018-09-09T22:35:50.256Z,56038.81
2018-09-09T22:38:19.430Z,56063.48
2018-09-09T22:40:48.630Z,56060.40
2018-09-09T22:43:17.783Z,56034.70
2018-09-09T22:45:49.126Z,56024.41
2018-09-09T22:48:19.540Z,56055.26
2018-09-09T22:50:48.965Z,56020.30
2018-09-09T22:53:18.161Z,56018.24
2018-09-09T22:55:47.352Z,56063.48
2018-09-09T22:58:16.524Z,56021.33
2018-09-09T23:00:45.737Z,56052.18
2018-09-09T23:03:14.927Z,56025.44
2018-09-09T23:05:44.101Z,56051.14
2018-09-09T23:08:13.425Z,56029.55
2018-09-09T23:10:42.597Z,56038.81
2018-09-09T23:13:12.205Z,56047.03
2018-09-09T23:15:41.412Z,56034.70
2018-09-09T23:18:10.581Z,56047.03
2018-09-09T23:20:39.704Z,56031.61
2018-09-09T23:23:08.849Z,56032.64
2018-09-09T23:25:38.030Z,56048.06
2018-09-09T23:28:07.273Z,56075.82
2018-09-09T23:30:36.475Z,56024.41
2018-09-09T23:33:05.583Z,56024.41
2018-09-09T23:35:34.771Z,56053.20
2018-09-09T23:38:03.959Z,56040.86
2018-09-09T23:40:33.191Z,56044.98
2018-09-09T23:43:02.342Z,56027.50
2018-09-09T23:45:31.557Z,56042.92
2018-09-09T23:48:00.772Z,56065.54
2018-09-09T23:50:30.418Z,56071.71
2018-09-09T23:52:59.634Z,56044.98
2018-09-09T23:55:28.816Z,56060.40
2018-09-09T23:57:58.067Z,56032.64
